Time;durP1;ratioP1;P1;durP2;ratioP2;P2;SDS_P1;SDS_P2;PMS_P1;PMS_P2;Temp;Humidity;BMP_temperature;BMP_pressure;BME280_temperature;BME280_humidity;BME280_pressure;Samples;Min_cycle;Max_cycle;Signal;HPM_P1;HPM_P2
2022/02/22 00:00:18;0.00;0.00;0.62;0.00;0.00;0.62;4.50;1.87;;;20.90;26.90;;;;;;2241124;62;20372;-64
2022/02/22 00:02:47;0.00;0.00;0.62;0.00;0.00;0.62;6.10;1.90;;;20.90;26.90;;;;;;2241289;62;20379;-63
2022/02/22 00:05:14;0.00;0.00;0.62;0.00;0.00;0.62;4.60;1.70;;;20.90;27.30;;;;;;2241197;62;20351;-65
2022/02/22 00:07:41;0.00;0.00;0.62;0.00;0.00;0.62;4.23;2.07;;;20.90;26.80;;;;;;2240992;62;20359;-65
2022/02/22 00:10:10;0.00;0.00;0.62;0.00;0.00;0.62;3.77;1.70;;;20.80;26.70;;;;;;2241623;62;20343;-64
2022/02/22 00:12:37;0.00;0.00;0.62;0.00;0.00;0.62;3.83;1.43;;;20.90;26.80;;;;;;2241257;61;20605;-64
2022/02/22 00:15:05;0.00;0.00;0.62;0.00;0.00;0.62;3.77;1.47;;;20.90;27.40;;;;;;2241038;62;20653;-64
2022/02/22 00:17:33;0.00;0.00;0.62;0.00;0.00;0.62;3.47;1.73;;;20.80;26.80;;;;;;2241473;62;20448;-64
2022/02/22 00:20:00;0.00;0.00;0.62;0.00;0.00;0.62;2.93;1.60;;;20.80;26.80;;;;;;2241318;62;20375;-64
2022/02/22 00:22:26;0.00;0.00;0.62;0.00;0.00;0.62;3.80;1.67;;;20.80;26.80;;;;;;2241490;61;20767;-64
2022/02/22 00:24:52;0.00;0.00;0.62;0.00;0.00;0.62;4.83;1.70;;;20.80;26.80;;;;;;2242278;62;20375;-63
2022/02/22 00:27:18;0.00;0.00;0.62;0.00;0.00;0.62;3.57;1.60;;;20.80;26.70;;;;;;2242063;62;20398;-64
2022/02/22 00:29:44;0.00;0.00;0.62;0.00;0.00;0.62;2.80;1.57;;;20.80;26.60;;;;;;2244443;61;20351;-64
2022/02/22 00:32:12;0.00;0.00;0.62;0.00;0.00;0.62;7.60;2.37;;;20.70;26.30;;;;;;2242044;61;20634;-64
2022/02/22 00:34:38;0.00;0.00;0.62;0.00;0.00;0.62;4.60;2.23;;;20.70;26.20;;;;;;2241981;62;20379;-64
2022/02/22 00:37:04;0.00;0.00;0.62;0.00;0.00;0.62;6.97;2.30;;;20.60;26.00;;;;;;2241712;62;20355;-63
2022/02/22 00:39:31;0.00;0.00;0.62;0.00;0.00;0.62;4.90;1.90;;;20.60;25.90;;;;;;2242191;62;20704;-63
2022/02/22 00:41:57;0.00;0.00;0.62;0.00;0.00;0.62;6.37;2.50;;;20.50;25.80;;;;;;2241869;62;20356;-63
2022/02/22 00:44:23;0.00;0.00;0.62;0.00;0.00;0.62;5.20;2.80;;;20.50;25.80;;;;;;2241574;62;20378;-63
2022/02/22 00:46:50;0.00;0.00;0.62;0.00;0.00;0.62;5.70;2.10;;;20.40;25.70;;;;;;2242104;62;20370;-64
2022/02/22 00:49:17;0.00;0.00;0.62;0.00;0.00;0.62;11.53;2.97;;;20.40;25.70;;;;;;2241979;62;20454;-64
2022/02/22 00:51:43;0.00;0.00;0.62;0.00;0.00;0.62;7.43;2.20;;;20.30;25.70;;;;;;2241519;62;20435;-64
2022/02/22 00:54:10;0.00;0.00;0.62;0.00;0.00;0.62;6.13;2.43;;;20.30;25.70;;;;;;2241973;62;20378;-64
2022/02/22 00:56:36;0.00;0.00;0.62;0.00;0.00;0.62;9.20;2.90;;;20.20;25.70;;;;;;2242026;62;20643;-64
2022/02/22 00:59:02;0.00;0.00;0.62;0.00;0.00;0.62;3.87;1.80;;;20.20;25.60;;;;;;2241618;62;20359;-64
2022/02/22 01:01:28;0.00;0.00;0.62;0.00;0.00;0.62;10.07;3.67;;;20.10;25.50;;;;;;2241765;62;20379;-64
2022/02/22 01:03:54;0.00;0.00;0.62;0.00;0.00;0.62;7.27;3.23;;;20.00;25.30;;;;;;2241852;62;20374;-64
2022/02/22 01:06:21;0.00;0.00;0.62;0.00;0.00;0.62;10.87;2.73;;;20.00;25.30;;;;;;2241455;62;20355;-64
2022/02/22 01:08:47;0.00;0.00;0.62;0.00;0.00;0.62;9.10;3.30;;;19.90;25.40;;;;;;2242094;62;20354;-64
2022/02/22 01:11:13;0.00;0.00;0.62;0.00;0.00;0.62;6.43;3.27;;;19.90;25.40;;;;;;2241814;62;20692;-64
2022/02/22 01:13:39;0.00;0.00;0.62;0.00;0.00;0.62;13.57;2.83;;;19.80;25.40;;;;;;2241501;61;20367;-64
2022/02/22 01:16:06;0.00;0.00;0.62;0.00;0.00;0.62;10.53;3.73;;;19.80;25.40;;;;;;2241855;62;20351;-64
2022/02/22 01:18:32;0.00;0.00;0.62;0.00;0.00;0.62;6.50;2.80;;;19.70;25.40;;;;;;2241912;62;20352;-64
2022/02/22 01:20:58;0.00;0.00;0.62;0.00;0.00;0.62;8.03;3.00;;;19.70;25.40;;;;;;2241579;62;20590;-63
2022/02/22 01:23:25;0.00;0.00;0.62;0.00;0.00;0.62;12.53;4.07;;;19.60;25.40;;;;;;2241166;62;20363;-63
2022/02/22 01:25:53;0.00;0.00;0.62;0.00;0.00;0.62;6.93;3.07;;;19.60;25.40;;;;;;2241631;62;20596;-64
2022/02/22 01:28:19;0.00;0.00;0.62;0.00;0.00;0.62;11.97;3.63;;;19.60;25.40;;;;;;2241572;62;20355;-64
2022/02/22 01:30:45;0.00;0.00;0.62;0.00;0.00;0.62;13.10;3.30;;;19.50;25.40;;;;;;2244464;61;20351;-63
2022/02/22 01:33:11;0.00;0.00;0.62;0.00;0.00;0.62;13.20;3.63;;;19.50;25.40;;;;;;2241610;61;20555;-64
2022/02/22 01:35:39;0.00;0.00;0.62;0.00;0.00;0.62;7.73;3.43;;;19.40;25.30;;;;;;2241752;62;20525;-64
2022/02/22 01:38:05;0.00;0.00;0.62;0.00;0.00;0.62;10.83;3.70;;;19.30;25.20;;;;;;2241868;62;20348;-63
2022/02/22 01:40:32;0.00;0.00;0.62;0.00;0.00;0.62;8.63;2.70;;;19.30;25.20;;;;;;2241866;62;20794;-63
2022/02/22 01:42:59;0.00;0.00;0.62;0.00;0.00;0.62;9.83;4.07;;;19.30;25.30;;;;;;2241245;61;20831;-63
2022/02/22 01:45:25;0.00;0.00;0.62;0.00;0.00;0.62;9.57;3.00;;;19.20;25.10;;;;;;2241774;62;20380;-63
2022/02/22 01:47:51;0.00;0.00;0.62;0.00;0.00;0.62;10.53;3.73;;;19.10;25.00;;;;;;2241464;62;20389;-63
2022/02/22 01:50:18;0.00;0.00;0.62;0.00;0.00;0.62;12.07;4.07;;;19.10;25.10;;;;;;2241518;62;20348;-63
2022/02/22 01:52:44;0.00;0.00;0.62;0.00;0.00;0.62;9.27;3.63;;;19.00;25.10;;;;;;2241697;61;20459;-63
2022/02/22 01:55:10;0.00;0.00;0.62;0.00;0.00;0.62;12.00;3.43;;;19.00;25.20;;;;;;2242078;62;20362;-62
2022/02/22 01:57:38;0.00;0.00;0.62;0.00;0.00;0.62;6.63;2.80;;;18.90;25.10;;;;;;2241171;62;20351;-64
2022/02/22 02:00:10;0.00;0.00;0.62;0.00;0.00;0.62;7.53;2.97;;;18.90;25.10;;;;;;2241680;62;20386;-63
2022/02/22 02:02:39;0.00;0.00;0.62;0.00;0.00;0.62;8.47;3.33;;;18.90;25.20;;;;;;2241792;61;20370;-62
2022/02/22 02:05:07;0.00;0.00;0.62;0.00;0.00;0.62;7.07;3.30;;;18.80;25.20;;;;;;2241457;62;20419;-63
2022/02/22 02:07:34;0.00;0.00;0.62;0.00;0.00;0.62;9.97;3.27;;;18.80;25.20;;;;;;2241576;62;20356;-63
2022/02/22 02:10:00;0.00;0.00;0.62;0.00;0.00;0.62;9.43;3.63;;;18.80;25.20;;;;;;2242130;62;20371;-63
2022/02/22 02:12:27;0.00;0.00;0.62;0.00;0.00;0.62;14.87;4.67;;;18.70;25.20;;;;;;2241008;61;20382;-63
2022/02/22 02:14:54;0.00;0.00;0.62;0.00;0.00;0.62;10.17;3.90;;;18.70;25.20;;;;;;2241688;62;20726;-63
2022/02/22 02:17:20;0.00;0.00;0.62;0.00;0.00;0.62;10.43;4.53;;;18.70;25.20;;;;;;2242110;62;20363;-63
2022/02/22 02:19:46;0.00;0.00;0.62;0.00;0.00;0.62;7.97;3.33;;;18.60;25.20;;;;;;2241014;62;20355;-63
2022/02/22 02:22:13;0.00;0.00;0.62;0.00;0.00;0.62;10.50;3.63;;;18.60;25.20;;;;;;2241428;61;20355;-63
2022/02/22 02:24:39;0.00;0.00;0.62;0.00;0.00;0.62;13.97;4.23;;;18.50;25.10;;;;;;2242045;62;20719;-62
2022/02/22 02:27:05;0.00;0.00;0.62;0.00;0.00;0.62;6.13;2.87;;;18.50;25.10;;;;;;2240908;62;20355;-64
2022/02/22 02:29:31;0.00;0.00;0.62;0.00;0.00;0.62;11.33;3.70;;;18.40;25.10;;;;;;2241142;62;20356;-63
2022/02/22 02:31:58;0.00;0.00;0.62;0.00;0.00;0.62;12.73;4.00;;;18.40;25.20;;;;;;2241857;62;20352;-63
2022/02/22 02:34:26;0.00;0.00;0.62;0.00;0.00;0.62;7.00;3.47;;;18.40;25.20;;;;;;2241155;62;20406;-63
2022/02/22 02:36:52;0.00;0.00;0.62;0.00;0.00;0.62;7.40;3.43;;;18.40;25.20;;;;;;2241567;62;20459;-63
2022/02/22 02:39:19;0.00;0.00;0.62;0.00;0.00;0.62;7.93;3.60;;;18.30;25.30;;;;;;2242146;62;20687;-63
2022/02/22 02:41:47;0.00;0.00;0.62;0.00;0.00;0.62;10.47;3.37;;;18.30;25.40;;;;;;2240952;62;20415;-63
2022/02/22 02:44:20;0.00;0.00;0.62;0.00;0.00;0.62;14.03;3.10;;;18.30;25.40;;;;;;2241070;62;20367;-62
2022/02/22 02:46:46;0.00;0.00;0.62;0.00;0.00;0.62;12.10;4.37;;;18.30;25.30;;;;;;2242034;62;20356;-62
2022/02/22 02:49:14;0.00;0.00;0.62;0.00;0.00;0.62;8.83;3.37;;;18.20;25.20;;;;;;2241262;62;20355;-64
2022/02/22 02:51:41;0.00;0.00;0.62;0.00;0.00;0.62;7.53;4.07;;;18.20;25.20;;;;;;2241466;62;20363;-64
2022/02/22 02:54:09;0.00;0.00;0.62;0.00;0.00;0.62;9.10;3.17;;;18.20;25.30;;;;;;2241770;62;20379;-61
2022/02/22 02:56:37;0.00;0.00;0.62;0.00;0.00;0.62;8.23;3.87;;;18.20;25.30;;;;;;2241293;62;20351;-62
2022/02/22 02:59:06;0.00;0.00;0.62;0.00;0.00;0.62;11.97;3.83;;;18.10;25.30;;;;;;2241568;62;20356;-64
2022/02/22 03:01:34;0.00;0.00;0.62;0.00;0.00;0.62;11.93;3.30;;;18.10;25.30;;;;;;2241837;62;20375;-63
2022/02/22 03:04:01;0.00;0.00;0.62;0.00;0.00;0.62;8.00;3.30;;;18.10;25.30;;;;;;2240918;62;20375;-65
2022/02/22 03:06:27;0.00;0.00;0.62;0.00;0.00;0.62;8.20;2.60;;;18.10;25.30;;;;;;2241276;62;20439;-63
2022/02/22 03:08:54;0.00;0.00;0.62;0.00;0.00;0.62;7.90;2.93;;;18.00;25.20;;;;;;2241941;62;20411;-62
2022/02/22 03:11:20;0.00;0.00;0.62;0.00;0.00;0.62;8.57;2.50;;;18.00;25.20;;;;;;2241277;62;20374;-65
2022/02/22 03:13:48;0.00;0.00;0.62;0.00;0.00;0.62;6.27;2.53;;;17.90;25.10;;;;;;2241283;61;20383;-63
2022/02/22 03:16:14;0.00;0.00;0.62;0.00;0.00;0.62;8.20;2.90;;;17.90;25.10;;;;;;2241939;62;20379;-63
2022/02/22 03:18:42;0.00;0.00;0.62;0.00;0.00;0.62;8.63;2.67;;;17.90;25.10;;;;;;2241203;62;20791;-63
2022/02/22 03:21:09;0.00;0.00;0.62;0.00;0.00;0.62;4.20;2.40;;;17.90;25.10;;;;;;2241095;62;20450;-63
2022/02/22 03:23:35;0.00;0.00;0.62;0.00;0.00;0.62;6.57;2.40;;;17.90;25.10;;;;;;2241698;61;20468;-64
2022/02/22 03:26:01;0.00;0.00;0.62;0.00;0.00;0.62;7.93;3.00;;;17.90;25.10;;;;;;2241198;62;20683;-63
2022/02/22 03:28:27;0.00;0.00;0.62;0.00;0.00;0.62;7.50;2.63;;;17.90;25.10;;;;;;2241246;62;20367;-64
2022/02/22 03:30:55;0.00;0.00;0.62;0.00;0.00;0.62;8.17;3.33;;;17.80;25.10;;;;;;2241889;62;20359;-63
2022/02/22 03:33:21;0.00;0.00;0.62;0.00;0.00;0.62;5.47;2.10;;;17.80;25.10;;;;;;2240966;61;20379;-63
2022/02/22 03:35:47;0.00;0.00;0.62;0.00;0.00;0.62;6.33;2.93;;;17.80;25.10;;;;;;2241179;62;20387;-63
2022/02/22 03:38:13;0.00;0.00;0.62;0.00;0.00;0.62;7.90;2.00;;;17.80;25.10;;;;;;2241796;62;20348;-63
2022/02/22 03:40:40;0.00;0.00;0.62;0.00;0.00;0.62;6.23;3.10;;;17.80;25.10;;;;;;2241119;62;20842;-63
2022/02/22 03:43:06;0.00;0.00;0.62;0.00;0.00;0.62;6.33;2.67;;;17.70;25.00;;;;;;2241055;61;20590;-64
2022/02/22 03:45:32;0.00;0.00;0.62;0.00;0.00;0.62;5.67;2.90;;;17.70;25.00;;;;;;2241832;62;20688;-63
2022/02/22 03:48:00;0.00;0.00;0.62;0.00;0.00;0.62;8.30;3.43;;;17.70;25.00;;;;;;2241168;62;20751;-63
2022/02/22 03:50:26;0.00;0.00;0.62;0.00;0.00;0.62;6.57;3.03;;;17.70;25.00;;;;;;2241105;62;20608;-63
2022/02/22 03:52:52;0.00;0.00;0.62;0.00;0.00;0.62;5.03;2.60;;;17.70;25.00;;;;;;2241548;61;20371;-63
2022/02/22 03:55:19;0.00;0.00;0.62;0.00;0.00;0.62;6.50;2.90;;;17.60;25.00;;;;;;2241031;62;20363;-62
2022/02/22 03:57:46;0.00;0.00;0.62;0.00;0.00;0.62;7.10;2.83;;;17.60;25.20;;;;;;2241210;62;20415;-64
2022/02/22 04:00:15;0.00;0.00;0.62;0.00;0.00;0.62;8.13;3.07;;;17.60;25.20;;;;;;2241276;62;20736;-64
2022/02/22 04:02:41;0.00;0.00;0.62;0.00;0.00;0.62;5.80;2.70;;;17.60;25.30;;;;;;2240709;61;20461;-64
2022/02/22 04:05:09;0.00;0.00;0.62;0.00;0.00;0.62;10.73;3.03;;;17.60;25.30;;;;;;2241126;62;20631;-65
2022/02/22 04:07:37;0.00;0.00;0.62;0.00;0.00;0.62;6.37;2.20;;;17.60;25.80;;;;;;2241633;62;20586;-64
2022/02/22 04:10:05;0.00;0.00;0.62;0.00;0.00;0.62;10.83;3.67;;;17.60;25.40;;;;;;2241082;62;20348;-64
2022/02/22 04:12:31;0.00;0.00;0.62;0.00;0.00;0.62;5.77;2.67;;;17.50;25.30;;;;;;2241066;61;20379;-64
2022/02/22 04:14:57;0.00;0.00;0.62;0.00;0.00;0.62;8.17;3.00;;;17.60;25.40;;;;;;2241633;62;20359;-64
2022/02/22 04:17:24;0.00;0.00;0.62;0.00;0.00;0.62;7.10;3.13;;;17.50;25.30;;;;;;2240892;62;20367;-64
2022/02/22 04:19:50;0.00;0.00;0.62;0.00;0.00;0.62;8.57;3.20;;;17.50;25.30;;;;;;2241038;62;20351;-63
2022/02/22 04:22:17;0.00;0.00;0.62;0.00;0.00;0.62;8.40;2.97;;;17.50;25.30;;;;;;2241542;61;20389;-64
2022/02/22 04:24:43;0.00;0.00;0.62;0.00;0.00;0.62;9.10;2.90;;;17.50;25.30;;;;;;2240933;62;20375;-64
2022/02/22 04:27:09;0.00;0.00;0.62;0.00;0.00;0.62;7.63;2.90;;;17.50;25.30;;;;;;2240946;62;20439;-64
2022/02/22 04:29:36;0.00;0.00;0.62;0.00;0.00;0.62;10.90;3.80;;;17.50;25.40;;;;;;2241731;62;20356;-64
2022/02/22 04:32:03;0.00;0.00;0.62;0.00;0.00;0.62;11.87;3.43;;;17.50;25.40;;;;;;2240585;61;20382;-64
2022/02/22 04:34:29;0.00;0.00;0.62;0.00;0.00;0.62;10.10;3.30;;;17.40;25.40;;;;;;2241010;62;20402;-64
2022/02/22 04:36:55;0.00;0.00;0.62;0.00;0.00;0.62;10.50;3.57;;;17.40;25.40;;;;;;2241677;62;20436;-64
2022/02/22 04:39:22;0.00;0.00;0.62;0.00;0.00;0.62;6.60;3.77;;;17.40;25.30;;;;;;2241010;62;20758;-63
2022/02/22 04:41:50;0.00;0.00;0.62;0.00;0.00;0.62;8.13;3.17;;;17.40;25.30;;;;;;2240758;62;20376;-64
2022/02/22 04:44:16;0.00;0.00;0.62;0.00;0.00;0.62;7.93;2.87;;;17.40;25.30;;;;;;2241570;62;20442;-63
2022/02/22 04:46:42;0.00;0.00;0.62;0.00;0.00;0.62;10.93;3.20;;;17.40;25.40;;;;;;2240810;62;20358;-63
2022/02/22 04:49:09;0.00;0.00;0.62;0.00;0.00;0.62;11.17;3.83;;;17.40;25.40;;;;;;2240902;62;20565;-64
2022/02/22 04:51:36;0.00;0.00;0.62;0.00;0.00;0.62;9.70;4.10;;;17.40;25.40;;;;;;2241581;62;20347;-63
2022/02/22 04:54:03;0.00;0.00;0.62;0.00;0.00;0.62;9.23;3.47;;;17.40;25.50;;;;;;2240825;62;20395;-63
2022/02/22 04:56:30;0.00;0.00;0.62;0.00;0.00;0.62;9.30;3.60;;;17.40;25.50;;;;;;2240907;62;20699;-62
2022/02/22 04:58:56;0.00;0.00;0.62;0.00;0.00;0.62;7.80;3.37;;;17.40;25.50;;;;;;2241613;62;20355;-63
2022/02/22 05:01:22;0.00;0.00;0.62;0.00;0.00;0.62;6.20;3.43;;;17.40;25.50;;;;;;2241006;62;20577;-63
2022/02/22 05:03:49;0.00;0.00;0.62;0.00;0.00;0.62;12.80;3.03;;;17.30;25.50;;;;;;2240803;61;20379;-62
2022/02/22 05:06:15;0.00;0.00;0.62;0.00;0.00;0.62;6.83;2.80;;;17.30;25.50;;;;;;2241667;62;20355;-63
2022/02/22 05:08:41;0.00;0.00;0.62;0.00;0.00;0.62;7.53;3.37;;;17.30;25.60;;;;;;2241988;62;20387;-63
2022/02/22 05:11:08;0.00;0.00;0.62;0.00;0.00;0.62;7.60;3.43;;;17.30;25.70;;;;;;2241638;62;20352;-63
2022/02/22 05:13:35;0.00;0.00;0.62;0.00;0.00;0.62;7.43;4.07;;;17.30;25.70;;;;;;2241918;61;20375;-62
2022/02/22 05:16:02;0.00;0.00;0.62;0.00;0.00;0.62;6.67;2.70;;;17.30;25.70;;;;;;2241991;62;20377;-62
2022/02/22 05:18:28;0.00;0.00;0.62;0.00;0.00;0.62;9.03;3.40;;;17.30;25.70;;;;;;2241612;62;20363;-61
2022/02/22 05:20:56;0.00;0.00;0.62;0.00;0.00;0.62;5.57;3.00;;;17.30;25.80;;;;;;2241946;62;20383;-62
2022/02/22 05:23:23;0.00;0.00;0.62;0.00;0.00;0.62;7.57;3.40;;;17.40;25.90;;;;;;2241581;61;20375;-63
2022/02/22 05:25:50;0.00;0.00;0.62;0.00;0.00;0.62;6.40;2.70;;;17.40;25.90;;;;;;2241535;62;20472;-62
2022/02/22 05:28:17;0.00;0.00;0.62;0.00;0.00;0.62;10.33;2.93;;;17.40;25.90;;;;;;2241861;62;20356;-62
2022/02/22 05:30:47;0.00;0.00;0.62;0.00;0.00;0.62;7.97;3.10;;;17.40;25.90;;;;;;2241895;62;20343;-62
2022/02/22 05:33:13;0.00;0.00;0.62;0.00;0.00;0.62;6.03;3.03;;;17.40;26.00;;;;;;2241592;61;20386;-61
2022/02/22 05:35:39;0.00;0.00;0.62;0.00;0.00;0.62;7.97;3.23;;;17.40;25.90;;;;;;2241972;62;20343;-62
2022/02/22 05:38:05;0.00;0.00;0.62;0.00;0.00;0.62;8.43;3.73;;;17.40;25.90;;;;;;2241880;62;20692;-63
2022/02/22 05:40:31;0.00;0.00;0.62;0.00;0.00;0.62;10.00;3.33;;;17.40;25.80;;;;;;2241686;62;20384;-63
2022/02/22 05:42:57;0.00;0.00;0.62;0.00;0.00;0.62;8.60;3.20;;;17.40;25.80;;;;;;2241531;61;20368;-61
2022/02/22 05:45:23;0.00;0.00;0.62;0.00;0.00;0.62;9.43;4.10;;;17.40;25.80;;;;;;2241838;62;20352;-61
2022/02/22 05:47:50;0.00;0.00;0.62;0.00;0.00;0.62;8.00;3.63;;;17.40;25.80;;;;;;2241550;62;20398;-61
2022/02/22 05:50:16;0.00;0.00;0.62;0.00;0.00;0.62;8.50;2.40;;;17.40;25.80;;;;;;2241973;62;20369;-61
2022/02/22 05:52:42;0.00;0.00;0.62;0.00;0.00;0.62;5.40;3.17;;;17.40;25.80;;;;;;2241690;61;20383;-61
2022/02/22 05:55:09;0.00;0.00;0.62;0.00;0.00;0.62;7.53;3.03;;;17.40;25.80;;;;;;2241580;62;20347;-64
2022/02/22 05:57:35;0.00;0.00;0.62;0.00;0.00;0.62;6.90;2.70;;;17.40;25.80;;;;;;2241820;62;20355;-62
2022/02/22 06:00:02;0.00;0.00;0.62;0.00;0.00;0.62;5.60;2.43;;;17.40;25.80;;;;;;2241840;62;20427;-64
2022/02/22 06:02:30;0.00;0.00;0.62;0.00;0.00;0.62;6.60;3.03;;;17.40;25.80;;;;;;2241331;61;20612;-64
2022/02/22 06:04:58;0.00;0.00;0.62;0.00;0.00;0.62;6.17;2.40;;;17.50;25.90;;;;;;2241823;62;20363;-63
2022/02/22 06:07:24;0.00;0.00;0.62;0.00;0.00;0.62;7.07;2.90;;;17.50;25.90;;;;;;2241723;62;20742;-63
2022/02/22 06:09:50;0.00;0.00;0.62;0.00;0.00;0.62;3.47;1.93;;;17.50;25.90;;;;;;2241523;62;20352;-64
2022/02/22 06:12:16;0.00;0.00;0.62;0.00;0.00;0.62;4.83;1.80;;;17.60;26.00;;;;;;2237955;61;20941;-63
2022/02/22 06:14:42;0.00;0.00;0.62;0.00;0.00;0.62;6.60;2.63;;;17.60;26.00;;;;;;2238113;62;20362;-63
2022/02/22 06:17:08;0.00;0.00;0.62;0.00;0.00;0.62;4.70;1.83;;;17.60;25.90;;;;;;2241465;62;20685;-63
2022/02/22 06:19:34;0.00;0.00;0.62;0.00;0.00;0.62;6.00;2.30;;;17.70;26.00;;;;;;2241655;62;20360;-65
2022/02/22 06:22:02;0.00;0.00;0.62;0.00;0.00;0.62;4.80;2.43;;;17.70;26.00;;;;;;2241570;61;20379;-63
2022/02/22 06:24:28;0.00;0.00;0.62;0.00;0.00;0.62;5.20;2.00;;;17.80;26.00;;;;;;2241258;62;20372;-64
2022/02/22 06:26:54;0.00;0.00;0.62;0.00;0.00;0.62;4.47;2.13;;;17.80;26.00;;;;;;2241676;62;20356;-63
2022/02/22 06:29:20;0.00;0.00;0.62;0.00;0.00;0.62;8.10;2.90;;;17.80;26.00;;;;;;2241789;62;20487;-64
2022/02/22 06:31:48;0.00;0.00;0.62;0.00;0.00;0.62;3.40;1.43;;;17.80;25.90;;;;;;2244057;61;20356;-63
2022/02/22 06:34:14;0.00;0.00;0.62;0.00;0.00;0.62;4.93;2.07;;;17.90;26.00;;;;;;2241771;62;20368;-64
2022/02/22 06:36:40;0.00;0.00;0.62;0.00;0.00;0.62;4.77;1.87;;;17.90;25.90;;;;;;2241854;62;20355;-64
2022/02/22 06:39:08;0.00;0.00;0.62;0.00;0.00;0.62;4.00;2.10;;;18.00;26.00;;;;;;2241215;62;20348;-63
2022/02/22 06:41:34;0.00;0.00;0.62;0.00;0.00;0.62;3.23;1.80;;;18.00;26.00;;;;;;2241571;62;20379;-64
2022/02/22 06:44:00;0.00;0.00;0.62;0.00;0.00;0.62;3.27;1.60;;;18.00;25.90;;;;;;2241539;62;20458;-64
2022/02/22 06:46:26;0.00;0.00;0.62;0.00;0.00;0.62;2.70;1.50;;;18.00;25.90;;;;;;2241310;62;20594;-63
2022/02/22 06:48:52;0.00;0.00;0.62;0.00;0.00;0.62;6.57;1.87;;;18.10;26.00;;;;;;2241745;62;20348;-64
2022/02/22 06:51:18;0.00;0.00;0.62;0.00;0.00;0.62;4.77;2.17;;;18.10;26.00;;;;;;2241799;62;20407;-63
2022/02/22 06:53:44;0.00;0.00;0.62;0.00;0.00;0.62;5.30;1.93;;;18.20;26.00;;;;;;2241228;61;20772;-64
2022/02/22 06:56:11;0.00;0.00;0.62;0.00;0.00;0.62;2.90;1.50;;;18.10;25.90;;;;;;2241704;62;20348;-63
2022/02/22 06:58:39;0.00;0.00;0.62;0.00;0.00;0.62;4.33;1.97;;;18.20;26.00;;;;;;2242169;62;20394;-64
2022/02/22 07:01:05;0.00;0.00;0.62;0.00;0.00;0.62;4.80;2.33;;;18.20;26.00;;;;;;2241107;62;20390;-63
2022/02/22 07:03:31;0.00;0.00;0.62;0.00;0.00;0.62;3.40;1.33;;;18.30;26.00;;;;;;2241378;61;20803;-64
2022/02/22 07:05:57;0.00;0.00;0.62;0.00;0.00;0.62;3.70;2.00;;;18.30;26.00;;;;;;2241942;62;20442;-63
2022/02/22 07:08:23;0.00;0.00;0.62;0.00;0.00;0.62;4.57;1.60;;;18.30;26.00;;;;;;2241077;62;20354;-63
2022/02/22 07:10:49;0.00;0.00;0.62;0.00;0.00;0.62;5.13;1.87;;;18.30;25.90;;;;;;2241629;62;20344;-65
2022/02/22 07:13:15;0.00;0.00;0.62;0.00;0.00;0.62;4.00;1.57;;;18.40;26.00;;;;;;2241811;61;20390;-65
2022/02/22 07:15:43;0.00;0.00;0.62;0.00;0.00;0.62;3.43;1.73;;;18.40;26.00;;;;;;2240974;62;20367;-64
2022/02/22 07:18:10;0.00;0.00;0.62;0.00;0.00;0.62;2.80;1.70;;;18.40;25.90;;;;;;2241563;62;20407;-64
2022/02/22 07:20:37;0.00;0.00;0.62;0.00;0.00;0.62;3.97;1.63;;;18.40;25.90;;;;;;2241909;62;20387;-64
2022/02/22 07:23:04;0.00;0.00;0.62;0.00;0.00;0.62;4.67;1.87;;;18.40;25.90;;;;;;2240730;61;20719;-64
2022/02/22 07:25:31;0.00;0.00;0.62;0.00;0.00;0.62;3.40;1.60;;;18.50;25.90;;;;;;2241585;62;20360;-65
2022/02/22 07:27:59;0.00;0.00;0.62;0.00;0.00;0.62;2.20;1.23;;;18.50;25.90;;;;;;2241868;62;20355;-65
2022/02/22 07:30:28;0.00;0.00;0.62;0.00;0.00;0.62;3.97;1.60;;;18.50;25.90;;;;;;2240918;62;20363;-65
2022/02/22 07:32:57;0.00;0.00;0.62;0.00;0.00;0.62;3.10;1.67;;;18.50;25.90;;;;;;2241361;61;20438;-65
2022/02/22 07:35:24;0.00;0.00;0.62;0.00;0.00;0.62;3.20;1.40;;;18.50;25.90;;;;;;2241829;62;20360;-65
2022/02/22 07:37:50;0.00;0.00;0.62;0.00;0.00;0.62;2.30;1.30;;;18.60;25.90;;;;;;2240995;62;20348;-65
2022/02/22 07:40:18;0.00;0.00;0.62;0.00;0.00;0.62;3.43;1.60;;;18.60;25.90;;;;;;2241497;62;20390;-65
2022/02/22 07:42:45;0.00;0.00;0.62;0.00;0.00;0.62;2.53;1.50;;;18.60;25.90;;;;;;2241619;61;20754;-65
2022/02/22 07:45:13;0.00;0.00;0.62;0.00;0.00;0.62;3.10;1.30;;;18.60;25.90;;;;;;2241161;62;20476;-65
2022/02/22 07:47:40;0.00;0.00;0.62;0.00;0.00;0.62;3.83;1.37;;;18.60;25.80;;;;;;2241268;62;20603;-65
2022/02/22 07:50:09;0.00;0.00;0.62;0.00;0.00;0.62;2.77;1.20;;;18.70;25.90;;;;;;2241802;62;20379;-64
2022/02/22 07:52:36;0.00;0.00;0.62;0.00;0.00;0.62;2.90;1.50;;;18.70;25.90;;;;;;2241097;61;20561;-65
2022/02/22 07:55:07;0.00;0.00;0.62;0.00;0.00;0.62;4.43;1.80;;;18.70;25.80;;;;;;2240964;62;20367;-64
2022/02/22 07:57:33;0.00;0.00;0.62;0.00;0.00;0.62;3.27;1.50;;;18.70;25.80;;;;;;2241783;62;20355;-65
2022/02/22 07:59:59;0.00;0.00;0.62;0.00;0.00;0.62;4.63;1.60;;;18.70;25.80;;;;;;2241162;62;20355;-64
2022/02/22 08:02:26;0.00;0.00;0.62;0.00;0.00;0.62;2.10;1.00;;;18.80;25.80;;;;;;2240993;61;20766;-65
2022/02/22 08:04:52;0.00;0.00;0.62;0.00;0.00;0.62;2.40;1.17;;;18.80;25.80;;;;;;2241846;62;20355;-64
2022/02/22 08:07:21;0.00;0.00;0.62;0.00;0.00;0.62;1.97;1.00;;;18.80;25.80;;;;;;2241088;62;20371;-63
2022/02/22 08:09:48;0.00;0.00;0.62;0.00;0.00;0.62;3.60;1.57;;;18.80;25.80;;;;;;2241311;62;20715;-65
2022/02/22 08:12:14;0.00;0.00;0.62;0.00;0.00;0.62;4.40;1.60;;;18.80;25.80;;;;;;2241579;61;20431;-65
2022/02/22 08:14:40;0.00;0.00;0.62;0.00;0.00;0.62;4.93;1.30;;;18.80;25.80;;;;;;2241224;62;20351;-65
2022/02/22 08:17:06;0.00;0.00;0.62;0.00;0.00;0.62;3.10;1.30;;;18.90;25.80;;;;;;2241157;62;20359;-64
2022/02/22 08:19:32;0.00;0.00;0.62;0.00;0.00;0.62;2.90;1.17;;;18.90;25.80;;;;;;2241661;62;20493;-66
2022/02/22 08:21:58;0.00;0.00;0.62;0.00;0.00;0.62;3.57;1.43;;;18.90;25.80;;;;;;2241166;62;20386;-65
2022/02/22 08:24:26;0.00;0.00;0.62;0.00;0.00;0.62;2.20;1.10;;;18.90;25.80;;;;;;2241062;62;20367;-64
2022/02/22 08:26:54;0.00;0.00;0.62;0.00;0.00;0.62;2.43;1.20;;;18.90;25.80;;;;;;2241240;62;20442;-65
2022/02/22 08:29:21;0.00;0.00;0.62;0.00;0.00;0.62;2.43;1.10;;;19.00;25.90;;;;;;2241189;62;20347;-65
2022/02/22 08:31:47;0.00;0.00;0.62;0.00;0.00;0.62;3.17;1.40;;;19.00;25.90;;;;;;2241017;62;20359;-63
2022/02/22 08:34:13;0.00;0.00;0.62;0.00;0.00;0.62;2.70;1.10;;;19.00;25.90;;;;;;2241578;62;20405;-64
2022/02/22 08:36:40;0.00;0.00;0.62;0.00;0.00;0.62;3.00;1.37;;;19.00;25.90;;;;;;2241151;62;20370;-64
2022/02/22 08:39:06;0.00;0.00;0.62;0.00;0.00;0.62;2.93;1.80;;;19.00;25.90;;;;;;2241169;62;20355;-65
2022/02/22 08:41:33;0.00;0.00;0.62;0.00;0.00;0.62;4.30;1.33;;;19.10;26.00;;;;;;2241783;62;20382;-64
2022/02/22 08:44:02;0.00;0.00;0.62;0.00;0.00;0.62;4.03;1.60;;;19.10;26.00;;;;;;2241566;62;20377;-64
2022/02/22 08:46:29;0.00;0.00;0.62;0.00;0.00;0.62;3.50;1.60;;;19.10;26.00;;;;;;2241846;62;20391;-65
2022/02/22 08:48:55;0.00;0.00;0.62;0.00;0.00;0.62;2.63;1.20;;;19.10;26.00;;;;;;2241866;62;20351;-64
2022/02/22 08:51:21;0.00;0.00;0.62;0.00;0.00;0.62;2.60;1.50;;;19.20;26.00;;;;;;2241679;62;20351;-64
2022/02/22 08:53:47;0.00;0.00;0.62;0.00;0.00;0.62;2.37;1.23;;;19.20;26.00;;;;;;2241709;61;20731;-64
2022/02/22 08:56:14;0.00;0.00;0.62;0.00;0.00;0.62;2.67;1.23;;;19.20;26.00;;;;;;2242327;62;20730;-64
2022/02/22 08:58:42;0.00;0.00;0.62;0.00;0.00;0.62;4.27;1.43;;;19.20;26.00;;;;;;2241642;62;20810;-65
2022/02/22 09:01:08;0.00;0.00;0.62;0.00;0.00;0.62;3.23;1.30;;;19.20;26.00;;;;;;2241757;62;20389;-64
2022/02/22 09:03:34;0.00;0.00;0.62;0.00;0.00;0.62;2.50;1.27;;;19.20;26.00;;;;;;2242029;61;20371;-65
2022/02/22 09:06:01;0.00;0.00;0.62;0.00;0.00;0.62;2.70;1.53;;;19.30;26.10;;;;;;2241639;62;20367;-65
2022/02/22 09:08:28;0.00;0.00;0.62;0.00;0.00;0.62;2.50;1.53;;;19.30;26.20;;;;;;2241619;62;20351;-65
2022/02/22 09:10:54;0.00;0.00;0.62;0.00;0.00;0.62;2.50;1.73;;;19.30;26.10;;;;;;2242423;62;20426;-65
2022/02/22 09:13:21;0.00;0.00;0.62;0.00;0.00;0.62;1.97;1.30;;;19.30;26.10;;;;;;2241450;61;20761;-65
2022/02/22 09:15:49;0.00;0.00;0.62;0.00;0.00;0.62;3.00;1.43;;;19.40;26.20;;;;;;2241786;62;20348;-64
2022/02/22 09:18:16;0.00;0.00;0.62;0.00;0.00;0.62;2.03;1.20;;;19.40;26.20;;;;;;2242271;62;20439;-63
2022/02/22 09:20:44;0.00;0.00;0.62;0.00;0.00;0.62;3.40;1.60;;;19.40;26.20;;;;;;2241632;62;20392;-64
2022/02/22 09:23:10;0.00;0.00;0.62;0.00;0.00;0.62;3.17;1.10;;;19.40;26.20;;;;;;2241358;61;20607;-64
2022/02/22 09:25:36;0.00;0.00;0.62;0.00;0.00;0.62;2.83;1.30;;;19.50;26.30;;;;;;2242278;62;20476;-64
2022/02/22 09:28:06;0.00;0.00;0.62;0.00;0.00;0.62;3.00;1.30;;;19.50;26.30;;;;;;2241542;62;20363;-64
2022/02/22 09:30:34;0.00;0.00;0.62;0.00;0.00;0.62;2.90;1.10;;;19.50;26.30;;;;;;2241522;62;20355;-66
2022/02/22 09:33:03;0.00;0.00;0.62;0.00;0.00;0.62;3.30;1.30;;;19.50;26.30;;;;;;2242082;61;20386;-64
2022/02/22 09:35:29;0.00;0.00;0.62;0.00;0.00;0.62;2.40;1.30;;;19.60;26.30;;;;;;2241231;62;20624;-64
2022/02/22 09:37:57;0.00;0.00;0.62;0.00;0.00;0.62;2.87;1.37;;;19.60;26.30;;;;;;2241555;62;20435;-64